createdAt,value
2023-02-07T00:00:51.825Z,-2.28
2023-02-07T00:03:18.526Z,-2.20
2023-02-07T00:05:45.097Z,-2.05
2023-02-07T00:08:11.821Z,-2.15
2023-02-07T00:10:38.391Z,-2.07
2023-02-07T00:13:06.391Z,-2.18
2023-02-07T00:15:33.255Z,-2.16
2023-02-07T00:17:59.833Z,-2.22
2023-02-07T00:20:26.453Z,-2.14
2023-02-07T00:22:55.230Z,-2.36
2023-02-07T00:25:22.498Z,-2.34
2023-02-07T00:27:49.253Z,-2.27
2023-02-07T00:30:16.218Z,-2.36
2023-02-07T00:32:42.797Z,-2.35
2023-02-07T00:35:09.530Z,-2.39
2023-02-07T00:37:36.358Z,-2.33
2023-02-07T00:40:03.090Z,-2.44
2023-02-07T00:42:29.810Z,-2.44
2023-02-07T00:44:56.446Z,-2.31
2023-02-07T00:47:22.997Z,-2.41
2023-02-07T00:49:49.524Z,-2.39
2023-02-07T00:52:16.080Z,-2.46
2023-02-07T00:54:42.588Z,-2.41
2023-02-07T00:57:09.193Z,-2.45
2023-02-07T00:59:35.779Z,-2.40
2023-02-07T01:02:02.304Z,-2.44
2023-02-07T01:04:28.918Z,-2.33
2023-02-07T01:06:55.466Z,-2.44
2023-02-07T01:09:22.153Z,-2.42
2023-02-07T01:11:48.707Z,-2.52
2023-02-07T01:14:15.308Z,-2.67
2023-02-07T01:16:42.463Z,-2.57
2023-02-07T01:19:11.260Z,-2.51
2023-02-07T01:21:38.093Z,-2.54
2023-02-07T01:24:05.153Z,-2.55
2023-02-07T01:26:31.701Z,-2.59
2023-02-07T01:28:58.306Z,-2.58
2023-02-07T01:31:25.313Z,-2.49
2023-02-07T01:33:56.906Z,-2.53
2023-02-07T01:36:24.397Z,-2.54
2023-02-07T01:38:53.720Z,-2.61
2023-02-07T01:41:21.953Z,-2.59
2023-02-07T01:44:06.137Z,-2.66
2023-02-07T01:46:34.646Z,-2.66
2023-02-07T01:49:09.816Z,-2.70
2023-02-07T01:51:38.128Z,-2.67
2023-02-07T01:54:08.137Z,-2.75
2023-02-07T01:56:38.133Z,-2.74
2023-02-07T01:59:06.438Z,-2.74
2023-02-07T02:01:33.862Z,-2.71
2023-02-07T02:04:01.209Z,-2.80
2023-02-07T02:06:32.077Z,-2.80
2023-02-07T02:09:00.804Z,-2.78
2023-02-07T02:11:55.386Z,-2.81
2023-02-07T02:14:24.895Z,-2.89
2023-02-07T02:17:22.901Z,-2.84
2023-02-07T02:20:21.711Z,-2.87
2023-02-07T02:22:57.325Z,-2.89
2023-02-07T02:25:36.243Z,-2.99
2023-02-07T02:28:27.765Z,-2.84
2023-02-07T02:31:32.711Z,-2.93
2023-02-07T02:34:31.688Z,-2.96
2023-02-07T02:37:04.091Z,-3.00
2023-02-07T02:39:59.032Z,-3.00
2023-02-07T02:42:43.011Z,-3.07
2023-02-07T02:45:12.641Z,-3.06
2023-02-07T02:47:42.248Z,-3.15
2023-02-07T02:50:19.240Z,-3.12
2023-02-07T02:52:50.878Z,-3.06
2023-02-07T02:55:29.085Z,-2.99
2023-02-07T02:58:05.362Z,-3.04
2023-02-07T03:01:19.119Z,-3.26
2023-02-07T03:04:00.537Z,-3.07
2023-02-07T03:07:00.663Z,-3.18
2023-02-07T03:10:10.900Z,-3.12
2023-02-07T03:13:00.451Z,-3.06
2023-02-07T03:15:29.771Z,-3.18
2023-02-07T03:17:59.310Z,-3.15
2023-02-07T03:20:28.605Z,-3.25
2023-02-07T03:22:58.324Z,-3.26
2023-02-07T03:25:26.877Z,-3.25
2023-02-07T03:27:56.064Z,-3.24
2023-02-07T03:30:27.008Z,-3.26
2023-02-07T03:32:58.265Z,-3.23
2023-02-07T03:35:37.920Z,-3.24
2023-02-07T03:38:05.425Z,-3.22
2023-02-07T03:40:42.336Z,-3.27
2023-02-07T03:43:30.477Z,-3.18
2023-02-07T03:45:57.487Z,-3.09
2023-02-07T03:48:24.838Z,-3.08
2023-02-07T03:50:52.895Z,-3.16
2023-02-07T03:53:20.795Z,-3.16
2023-02-07T03:55:47.614Z,-3.14
2023-02-07T03:58:14.338Z,-3.12
2023-02-07T04:00:41.124Z,-3.13
2023-02-07T04:03:07.727Z,-3.15
2023-02-07T04:05:34.541Z,-3.09
2023-02-07T04:08:01.126Z,-3.07
2023-02-07T04:10:27.717Z,-3.17
2023-02-07T04:12:54.342Z,-3.13
2023-02-07T04:15:21.201Z,-3.17
2023-02-07T04:17:47.743Z,-3.23
2023-02-07T04:20:14.636Z,-3.23
2023-02-07T04:22:41.309Z,-3.17
2023-02-07T04:25:08.060Z,-3.18
2023-02-07T04:27:34.634Z,-3.19
2023-02-07T04:30:01.171Z,-3.22
2023-02-07T04:32:28.065Z,-3.24
2023-02-07T04:34:54.658Z,-3.23
2023-02-07T04:37:21.213Z,-3.27
2023-02-07T04:39:47.899Z,-3.33
2023-02-07T04:42:14.484Z,-3.30
2023-02-07T04:44:41.050Z,-3.32
2023-02-07T04:47:07.631Z,-3.26
2023-02-07T04:49:34.789Z,-3.21
2023-02-07T04:52:01.687Z,-3.31
2023-02-07T04:54:28.329Z,-3.22
2023-02-07T04:56:54.958Z,-3.31
2023-02-07T04:59:21.513Z,-3.33
2023-02-07T05:01:48.201Z,-3.38
2023-02-07T05:04:14.866Z,-3.34
2023-02-07T05:06:41.593Z,-3.31
2023-02-07T05:09:08.124Z,-3.45
2023-02-07T05:11:34.650Z,-3.39
2023-02-07T05:14:01.246Z,-3.47
2023-02-07T05:16:27.938Z,-3.41
2023-02-07T05:18:54.500Z,-3.40
2023-02-07T05:21:21.187Z,-3.45
2023-02-07T05:23:47.864Z,-3.38
2023-02-07T05:26:14.985Z,-3.43
2023-02-07T05:28:41.569Z,-3.46
2023-02-07T05:31:08.400Z,-3.54
2023-02-07T05:33:35.066Z,-3.58
2023-02-07T05:36:05.218Z,-3.59
2023-02-07T05:38:31.985Z,-3.59
2023-02-07T05:40:58.573Z,-3.58
2023-02-07T05:43:25.184Z,-3.56
2023-02-07T05:45:52.077Z,-3.57
2023-02-07T05:48:18.741Z,-3.63
2023-02-07T05:50:45.332Z,-3.71
2023-02-07T05:53:12.974Z,-3.63
2023-02-07T05:55:40.086Z,-3.61
2023-02-07T05:58:06.781Z,-3.69
2023-02-07T06:00:33.479Z,-3.68
2023-02-07T06:03:00.069Z,-3.72
2023-02-07T06:05:31.692Z,-3.81
2023-02-07T06:07:58.745Z,-3.85
2023-02-07T06:10:25.529Z,-3.86
2023-02-07T06:12:52.197Z,-3.93
2023-02-07T06:15:18.773Z,-3.93
2023-02-07T06:17:45.394Z,-3.94
2023-02-07T06:20:12.448Z,-3.92
2023-02-07T06:22:39.219Z,-3.95
2023-02-07T06:25:06.183Z,-3.99
2023-02-07T06:27:32.729Z,-4.07
2023-02-07T06:29:59.358Z,-4.10
2023-02-07T06:32:25.960Z,-3.98
2023-02-07T06:34:52.550Z,-3.99
2023-02-07T06:37:19.126Z,-4.09
2023-02-07T06:39:45.720Z,-4.08
2023-02-07T06:42:12.344Z,-4.10
2023-02-07T06:44:38.913Z,-4.03
2023-02-07T06:47:06.059Z,-4.18
2023-02-07T06:49:32.694Z,-4.16
2023-02-07T06:51:59.292Z,-4.15
2023-02-07T06:54:25.970Z,-4.04
2023-02-07T06:56:52.549Z,-4.17
2023-02-07T06:59:19.177Z,-4.16
2023-02-07T07:01:47.728Z,-4.09
2023-02-07T07:04:15.890Z,-4.09
2023-02-07T07:06:42.493Z,-4.13
2023-02-07T07:09:09.012Z,-4.23
2023-02-07T07:11:39.062Z,-4.13
2023-02-07T07:14:05.621Z,-4.07
2023-02-07T07:16:32.130Z,-3.98
2023-02-07T07:18:58.689Z,-3.97
2023-02-07T07:21:27.625Z,-3.98
2023-02-07T07:23:55.143Z,-3.91
2023-02-07T07:26:21.704Z,-4.03
2023-02-07T07:28:49.605Z,-3.80
2023-02-07T07:31:16.689Z,-3.80
2023-02-07T07:33:43.293Z,-3.69
2023-02-07T07:36:10.126Z,-3.69
2023-02-07T07:41:04.372Z,-3.65
2023-02-07T07:43:31.166Z,-3.66
2023-02-07T07:46:00.127Z,-3.53
2023-02-07T07:48:27.731Z,-3.32
2023-02-07T07:50:54.583Z,-3.26
2023-02-07T07:53:21.851Z,-3.32
2023-02-07T07:55:50.538Z,-3.30
2023-02-07T07:58:17.666Z,-3.35
2023-02-07T08:00:44.250Z,-3.18
2023-02-07T08:03:11.364Z,-3.26
2023-02-07T08:05:37.894Z,-3.29
2023-02-07T08:08:04.661Z,-3.15
2023-02-07T08:10:31.307Z,-3.18
2023-02-07T08:13:05.063Z,-3.11
2023-02-07T08:15:31.784Z,-3.17
2023-02-07T08:17:58.670Z,-3.00
2023-02-07T08:20:25.265Z,-2.79
2023-02-07T08:22:52.666Z,-2.90
2023-02-07T08:25:19.353Z,-2.98
2023-02-07T08:27:46.137Z,-2.97
2023-02-07T08:30:14.569Z,-2.98
2023-02-07T08:32:42.369Z,-2.72
2023-02-07T08:35:09.634Z,-2.68
2023-02-07T08:37:36.582Z,-2.64
2023-02-07T08:40:05.454Z,-2.60
2023-02-07T08:42:32.038Z,-2.64
2023-02-07T08:44:58.769Z,-2.56
2023-02-07T08:47:25.430Z,-2.53
2023-02-07T08:49:52.062Z,-2.43
2023-02-07T08:52:18.671Z,-2.49
2023-02-07T08:54:45.207Z,-2.36
2023-02-07T08:57:11.810Z,-2.46
2023-02-07T08:59:38.363Z,-2.08
2023-02-07T09:02:05.010Z,-2.00
2023-02-07T09:04:31.570Z,-1.81
2023-02-07T09:06:58.160Z,-1.83
2023-02-07T09:09:25.236Z,-1.87
2023-02-07T09:11:51.787Z,-1.72
2023-02-07T09:14:18.601Z,-1.72
2023-02-07T09:16:45.396Z,-1.88
2023-02-07T09:19:11.976Z,-1.66
2023-02-07T09:21:38.573Z,-1.88
2023-02-07T09:24:05.250Z,-1.66
2023-02-07T09:26:34.373Z,-1.63
2023-02-07T09:29:01.330Z,-1.42
2023-02-07T09:31:28.395Z,-1.26
2023-02-07T09:33:55.029Z,-1.52
2023-02-07T09:36:27.508Z,-1.44
2023-02-07T09:38:54.899Z,-1.23
2023-02-07T09:41:29.837Z,-1.43
2023-02-07T09:44:05.208Z,-1.12
2023-02-07T09:46:40.271Z,-1.19
2023-02-07T09:49:19.668Z,-0.94
2023-02-07T09:51:46.928Z,-0.78
2023-02-07T09:54:39.524Z,-1.02
2023-02-07T09:57:16.886Z,-1.11
2023-02-07T10:00:04.572Z,-0.82
2023-02-07T10:02:38.884Z,-1.00
2023-02-07T10:05:20.201Z,-0.88
2023-02-07T10:07:48.947Z,-1.00
2023-02-07T10:10:26.796Z,-0.96
2023-02-07T10:12:56.297Z,-0.75
2023-02-07T10:15:45.446Z,-0.55
2023-02-07T10:18:42.626Z,-0.37
2023-02-07T10:21:20.528Z,-0.21
2023-02-07T10:23:49.891Z,-0.18
2023-02-07T10:26:34.643Z,-0.26
2023-02-07T10:29:25.631Z,-0.19
2023-02-07T10:31:55.598Z,-0.16
2023-02-07T10:34:25.452Z,-0.10
2023-02-07T10:36:53.704Z,-0.19
2023-02-07T10:39:29.852Z,-0.15
2023-02-07T10:41:57.742Z,-0.09
2023-02-07T10:44:25.784Z,-0.08
2023-02-07T10:47:01.773Z,0.06
2023-02-07T10:49:31.987Z,-0.17
2023-02-07T10:52:34.115Z,-0.14
2023-02-07T10:55:05.078Z,0.31
2023-02-07T10:57:32.481Z,0.43
2023-02-07T11:00:03.422Z,0.66
2023-02-07T11:02:32.865Z,0.68
2023-02-07T11:05:06.990Z,0.91
2023-02-07T11:07:46.053Z,0.72
2023-02-07T11:10:20.505Z,0.56
2023-02-07T11:12:49.755Z,0.69
2023-02-07T11:15:19.911Z,0.72
2023-02-07T11:17:51.478Z,1.07
2023-02-07T11:20:41.388Z,1.02
2023-02-07T11:23:18.237Z,1.27
2023-02-07T11:25:47.869Z,1.11
2023-02-07T11:28:27.699Z,1.11
2023-02-07T11:31:03.359Z,0.87
2023-02-07T11:33:33.415Z,0.92
2023-02-07T11:36:05.965Z,1.24
2023-02-07T11:38:41.517Z,0.95
2023-02-07T11:41:21.578Z,1.48
2023-02-07T11:44:01.502Z,1.45
2023-02-07T11:46:41.582Z,1.59
2023-02-07T11:49:24.727Z,1.53
2023-02-07T11:51:54.473Z,1.37
2023-02-07T11:54:21.100Z,1.37
2023-02-07T11:56:56.025Z,1.43
2023-02-07T11:59:26.766Z,1.54
2023-02-07T12:01:56.584Z,1.42
2023-02-07T12:04:41.943Z,1.40
2023-02-07T12:07:25.497Z,1.34
2023-02-07T12:10:03.054Z,1.27
2023-02-07T12:12:48.512Z,1.67
2023-02-07T12:15:23.301Z,1.78
2023-02-07T12:18:02.128Z,1.53
2023-02-07T12:20:33.590Z,1.43
2023-02-07T12:23:39.164Z,1.57
2023-02-07T12:26:01.716Z,1.80
2023-02-07T12:28:40.761Z,1.91
2023-02-07T12:31:24.455Z,1.62
2023-02-07T12:34:12.237Z,1.85
2023-02-07T12:36:48.467Z,2.05
2023-02-07T12:39:39.509Z,1.84
2023-02-07T12:42:27.553Z,1.94
2023-02-07T12:45:01.665Z,1.99
2023-02-07T12:47:41.007Z,1.65
2023-02-07T12:50:29.168Z,1.97
2023-02-07T12:53:20.554Z,2.03
2023-02-07T12:56:08.166Z,2.06
2023-02-07T12:58:35.607Z,2.06
2023-02-07T13:01:11.292Z,2.02
2023-02-07T13:04:04.949Z,1.81
2023-02-07T13:06:31.516Z,1.84
2023-02-07T13:09:12.503Z,2.09
2023-02-07T13:11:47.281Z,2.14
2023-02-07T13:14:29.396Z,2.17
2023-02-07T13:17:18.026Z,1.88
2023-02-07T13:20:05.190Z,1.84
2023-02-07T13:22:43.432Z,1.79
2023-02-07T13:25:41.375Z,1.92
2023-02-07T13:28:24.697Z,2.27
2023-02-07T13:30:53.617Z,1.96
2023-02-07T13:33:29.734Z,1.75
2023-02-07T13:36:02.025Z,1.88
2023-02-07T13:38:46.902Z,2.21
2023-02-07T13:41:20.872Z,2.09
2023-02-07T13:44:09.788Z,2.23
2023-02-07T13:46:55.675Z,2.19
2023-02-07T13:49:32.156Z,2.06
2023-02-07T13:52:20.803Z,2.02
2023-02-07T13:54:53.109Z,2.33
2023-02-07T13:57:58.942Z,2.45
2023-02-07T14:00:28.585Z,2.31
2023-02-07T14:03:00.214Z,2.44
2023-02-07T14:05:41.151Z,2.32
2023-02-07T14:08:24.966Z,2.20
2023-02-07T14:10:53.106Z,2.13
2023-02-07T14:13:29.375Z,2.07
2023-02-07T14:15:56.041Z,2.27
2023-02-07T14:18:39.409Z,2.57
2023-02-07T14:21:20.988Z,2.09
2023-02-07T14:24:02.856Z,2.25
2023-02-07T14:26:38.285Z,2.25
2023-02-07T14:29:20.053Z,2.31
2023-02-07T14:31:59.233Z,2.33
2023-02-07T14:34:52.364Z,2.40
2023-02-07T14:37:38.147Z,2.31
2023-02-07T14:40:43.453Z,2.25
2023-02-07T14:43:12.841Z,2.26
2023-02-07T14:45:57.687Z,2.21
2023-02-07T14:48:42.555Z,2.17
2023-02-07T14:51:14.768Z,2.13
2023-02-07T14:53:45.081Z,2.19
2023-02-07T14:56:25.433Z,2.28
2023-02-07T14:58:56.004Z,2.15
2023-02-07T15:01:24.499Z,2.00
2023-02-07T15:04:06.997Z,2.14
2023-02-07T15:06:44.560Z,2.13
2023-02-07T15:09:24.177Z,2.03
2023-02-07T15:11:59.895Z,2.18
2023-02-07T15:14:35.010Z,2.08
2023-02-07T15:17:02.669Z,1.93
2023-02-07T15:19:41.461Z,2.06
2023-02-07T15:22:23.981Z,2.14
2023-02-07T15:24:55.147Z,2.00
2023-02-07T15:27:28.185Z,1.95
2023-02-07T15:29:56.206Z,1.84
2023-02-07T15:32:30.764Z,1.82
2023-02-07T15:34:58.187Z,1.70
2023-02-07T15:37:26.423Z,1.67
2023-02-07T15:39:55.636Z,1.64
2023-02-07T15:42:23.225Z,1.64
2023-02-07T15:44:53.925Z,1.57
2023-02-07T15:47:29.690Z,1.56
2023-02-07T15:50:19.892Z,1.63
2023-02-07T15:52:53.713Z,1.53
2023-02-07T15:55:50.803Z,1.50
2023-02-07T15:58:24.731Z,1.35
2023-02-07T16:00:55.473Z,1.21
2023-02-07T16:03:28.835Z,1.23
2023-02-07T16:06:09.417Z,1.16
2023-02-07T16:08:39.126Z,1.07
2023-02-07T16:11:34.359Z,0.88
2023-02-07T16:14:10.783Z,0.77
2023-02-07T16:16:41.475Z,0.60
2023-02-07T16:19:18.070Z,0.79
2023-02-07T16:21:50.679Z,0.75
2023-02-07T16:24:23.170Z,0.65
2023-02-07T16:26:50.887Z,0.72
2023-02-07T16:29:21.249Z,0.85
2023-02-07T16:31:48.231Z,0.79
2023-02-07T16:34:17.289Z,0.56
2023-02-07T16:36:47.697Z,0.54
2023-02-07T16:39:14.231Z,0.52
2023-02-07T16:41:45.187Z,0.52
2023-02-07T16:44:17.005Z,0.37
2023-02-07T16:46:43.611Z,0.35
2023-02-07T16:49:19.676Z,0.23
2023-02-07T16:51:46.394Z,0.22
2023-02-07T16:54:12.987Z,0.20
2023-02-07T16:56:41.241Z,0.26
2023-02-07T16:59:14.755Z,0.22
2023-02-07T17:01:41.448Z,0.14
2023-02-07T17:04:08.069Z,0.18
2023-02-07T17:06:34.704Z,0.12
2023-02-07T17:09:01.253Z,0.12
2023-02-07T17:11:27.814Z,0.19
2023-02-07T17:13:56.677Z,0.12
2023-02-07T17:16:24.829Z,0.10
2023-02-07T17:18:52.142Z,-0.05
2023-02-07T17:21:19.347Z,-0.20
2023-02-07T17:23:47.775Z,-0.28
2023-02-07T17:26:26.713Z,-0.22
2023-02-07T17:28:54.974Z,-0.33
2023-02-07T17:31:22.029Z,-0.36
2023-02-07T17:33:48.723Z,-0.33
2023-02-07T17:36:16.108Z,-0.30
2023-02-07T17:38:42.902Z,-0.38
2023-02-07T17:41:12.049Z,-0.32
2023-02-07T17:43:41.652Z,-0.34
2023-02-07T17:46:24.672Z,-0.30
2023-02-07T17:48:52.041Z,-0.36
2023-02-07T17:51:21.621Z,-0.26
2023-02-07T17:53:48.349Z,-0.28
2023-02-07T17:56:30.477Z,-0.45
2023-02-07T17:59:00.298Z,-0.48
2023-02-07T18:01:26.869Z,-0.30
2023-02-07T18:03:54.807Z,-0.50
2023-02-07T18:06:25.646Z,-0.48
2023-02-07T18:08:52.433Z,-0.44
2023-02-07T18:11:19.334Z,-0.52
2023-02-07T18:13:47.725Z,-0.56
2023-02-07T18:16:21.991Z,-0.62
2023-02-07T18:18:52.737Z,-0.66
2023-02-07T18:21:19.706Z,-0.66
2023-02-07T18:23:46.612Z,-0.71
2023-02-07T18:26:19.355Z,-0.74
2023-02-07T18:28:46.679Z,-0.70
2023-02-07T18:31:19.208Z,-0.79
2023-02-07T18:33:46.179Z,-0.72
2023-02-07T18:36:13.220Z,-0.66
2023-02-07T18:38:40.016Z,-0.67
2023-02-07T18:41:11.357Z,-0.78
2023-02-07T18:43:40.375Z,-0.68
2023-02-07T18:46:12.548Z,-0.56
2023-02-07T18:48:39.178Z,-0.77
2023-02-07T18:51:11.744Z,-0.78
2023-02-07T18:53:39.166Z,-0.79
2023-02-07T18:56:08.177Z,-0.93
2023-02-07T18:58:34.763Z,-0.90
2023-02-07T19:01:07.716Z,-1.02
2023-02-07T19:03:37.860Z,-0.98
2023-02-07T19:06:06.385Z,-1.02
2023-02-07T19:08:32.998Z,-1.24
2023-02-07T19:11:01.928Z,-1.19
2023-02-07T19:13:29.294Z,-1.10
2023-02-07T19:16:23.557Z,-1.12
2023-02-07T19:18:50.437Z,-1.15
2023-02-07T19:21:21.695Z,-1.10
2023-02-07T19:23:48.657Z,-1.33
2023-02-07T19:26:15.303Z,-1.27
2023-02-07T19:28:42.204Z,-1.22
2023-02-07T19:31:13.479Z,-1.21
2023-02-07T19:33:41.016Z,-1.20
2023-02-07T19:36:10.110Z,-1.21
2023-02-07T19:38:37.405Z,-1.18
2023-02-07T19:41:05.505Z,-1.21
2023-02-07T19:43:32.617Z,-1.18
2023-02-07T19:45:59.195Z,-1.36
2023-02-07T19:48:25.892Z,-1.38
2023-02-07T19:51:03.826Z,-1.39
2023-02-07T19:53:31.056Z,-1.35
2023-02-07T19:56:08.955Z,-1.41
2023-02-07T19:58:37.598Z,-1.44
2023-02-07T20:01:04.398Z,-1.42
2023-02-07T20:03:31.499Z,-1.40
2023-02-07T20:06:03.387Z,-1.42
2023-02-07T20:08:34.850Z,-1.49
2023-02-07T20:11:06.984Z,-1.61
2023-02-07T20:13:46.194Z,-1.56
2023-02-07T20:16:15.686Z,-1.62
2023-02-07T20:18:42.924Z,-1.59
2023-02-07T20:21:13.159Z,-1.51
2023-02-07T20:23:42.131Z,-1.58
2023-02-07T20:26:15.210Z,-1.60
2023-02-07T20:28:42.416Z,-1.52
2023-02-07T20:31:12.370Z,-1.68
2023-02-07T20:33:40.507Z,-1.68
2023-02-07T20:36:08.421Z,-1.66
2023-02-07T20:38:35.286Z,-1.83
2023-02-07T20:41:06.992Z,-1.69
2023-02-07T20:43:33.638Z,-1.81
2023-02-07T20:46:08.329Z,-1.78
2023-02-07T20:48:35.205Z,-1.78
2023-02-07T20:51:06.244Z,-1.84
2023-02-07T20:53:32.937Z,-1.88
2023-02-07T20:56:12.645Z,-1.92
2023-02-07T20:58:40.291Z,-1.91
2023-02-07T21:01:16.348Z,-1.98
2023-02-07T21:03:46.659Z,-2.09
2023-02-07T21:06:13.397Z,-1.98
2023-02-07T21:08:41.591Z,-2.03
2023-02-07T21:11:09.069Z,-2.04
2023-02-07T21:13:36.909Z,-2.14
2023-02-07T21:16:05.322Z,-2.04
2023-02-07T21:18:33.196Z,-2.21
2023-02-07T21:21:00.167Z,-2.13
2023-02-07T21:23:26.955Z,-2.07
2023-02-07T21:25:54.077Z,-2.02
2023-02-07T21:28:20.745Z,-2.06
2023-02-07T21:30:47.560Z,-2.05
2023-02-07T21:33:14.106Z,-2.07
2023-02-07T21:35:40.751Z,-1.96
2023-02-07T21:38:07.431Z,-1.99
2023-02-07T21:40:34.543Z,-2.09
2023-02-07T21:43:01.588Z,-2.09
2023-02-07T21:45:28.283Z,-2.15
2023-02-07T21:47:54.898Z,-2.19
2023-02-07T21:50:21.523Z,-2.19
2023-02-07T21:52:48.627Z,-2.18
2023-02-07T21:55:15.303Z,-2.35
2023-02-07T21:57:41.895Z,-2.34
2023-02-07T22:00:10.655Z,-2.42
2023-02-07T22:02:37.865Z,-2.43
2023-02-07T22:05:04.610Z,-2.53
2023-02-07T22:07:31.129Z,-2.55
2023-02-07T22:09:57.713Z,-2.56
2023-02-07T22:12:24.304Z,-2.68
2023-02-07T22:14:50.848Z,-2.64
2023-02-07T22:17:19.076Z,-2.69
2023-02-07T22:19:45.640Z,-2.77
2023-02-07T22:22:12.142Z,-2.83
2023-02-07T22:24:38.711Z,-2.89
2023-02-07T22:27:05.308Z,-3.00
2023-02-07T22:29:31.868Z,-2.85
2023-02-07T22:31:58.597Z,-2.91
2023-02-07T22:34:25.272Z,-2.90
2023-02-07T22:36:51.874Z,-2.86
2023-02-07T22:39:18.690Z,-2.75
2023-02-07T22:41:46.031Z,-2.85
2023-02-07T22:44:12.717Z,-2.91
2023-02-07T22:46:39.263Z,-2.89
2023-02-07T22:49:05.825Z,-2.94
2023-02-07T22:51:35.240Z,-2.99
2023-02-07T22:54:05.718Z,-3.02
2023-02-07T22:56:33.924Z,-3.09
2023-02-07T22:59:00.655Z,-3.22
2023-02-07T23:01:34.460Z,-3.01
2023-02-07T23:04:05.353Z,-3.11
2023-02-07T23:06:34.884Z,-3.22
2023-02-07T23:09:01.698Z,-3.16
2023-02-07T23:11:28.288Z,-3.16
2023-02-07T23:13:55.499Z,-3.16
2023-02-07T23:16:27.293Z,-3.20
2023-02-07T23:18:56.657Z,-3.16
2023-02-07T23:21:25.328Z,-3.22
2023-02-07T23:23:52.080Z,-3.18
2023-02-07T23:26:22.091Z,-3.05
2023-02-07T23:28:49.545Z,-3.19
2023-02-07T23:31:18.274Z,-3.17
2023-02-07T23:33:44.899Z,-3.11
2023-02-07T23:36:12.345Z,-3.02
2023-02-07T23:38:39.529Z,-2.96
2023-02-07T23:41:07.452Z,-2.97
2023-02-07T23:43:35.193Z,-3.07
2023-02-07T23:46:01.865Z,-3.16
2023-02-07T23:48:28.500Z,-3.12
2023-02-07T23:50:56.938Z,-3.07
2023-02-07T23:53:24.520Z,-3.11
2023-02-07T23:55:54.210Z,-3.12
2023-02-07T23:58:21.979Z,-3.06
